デンバー の空港の天気 - METARとTAF

デンバー国際空港 ( KDEN / DEN ) - アメリカ コロラド州デンバー
飛行場実況気象(Metar)
観測時間05/26 16:53 MDT (05/26 22:53 UTC)
風向・風速不定 2m/s 瞬間風速9m/s
視程10km以上
天気現象
少しの雲 雲底高度 3050m
少しの雲 雲底高度 4270m
少しの雲 雲底高度 6710m
気温24.4℃
湿度24%
気圧1010.3hPa
METARKDEN 262253Z VRB04G18KT 10SM FEW100 FEW140 FEW220 24/03 A3001 RMK AO2 SLP103 T02440028
過去の天気等 Google飛行場航空写真 Wunderground天気予報

過去48時間のMETAR

飛行場予報(TAF)
発表時間: 5/26 15:00 MDT (5/26 21:00 UTC)
予報対象時間: 26日15時 MDT ~ 27日18時 MDT
風向・風速北 5m/s
視程10km以上
少しの雲 雲底高度 2740m
少しの雲 雲底高度 6100m
26日19時 MDT から
風向・風速北東 4m/s
視程10km以上
少しの雲 雲底高度 4270m
全天の4割程度の雲 雲底高度 6710m
26日21時 MDT から
風向・風速南東 4m/s
視程10km以上
少しの雲 雲底高度 4270m
全天の4割程度の雲 雲底高度 6710m
27日0時 MDT から
風向・風速南 4m/s
視程10km以上
少しの雲 雲底高度 6710m
27日3時 MDT から
風向・風速南南西 4m/s
視程10km以上
少しの雲 雲底高度 6710m
27日9時 MDT から
風向・風速北西 3m/s
視程10km以上
少しの雲 雲底高度 6100m
27日15時 MDT から
風向・風速北東 3m/s
視程10km以上
全天の4割程度の雲 雲底高度 2440m
全天の8割程度の雲 雲底高度 4270m
KDEN 262100Z 2621/2724 36009KT P6SM FEW090 FEW200
FM270100 04007KT P6SM FEW140 SCT220
FM270300 14007KT P6SM FEW140 SCT220
FM270600 18007KT P6SM FEW220
FM270900 21007KT P6SM FEW220
FM271500 31005KT P6SM FEW200
FM272100 05006KT P6SM SCT080 BKN140